NOZ3654 EKCH-LEVC
Flight info
| Callsign | NOZ3654 |
|---|---|
| Flight time | 2h 47m |
| Altitude | 38000 |
| Route | EKCH/04R N0440F380 LANG2A LANGO DCT POGUG DCT RAXLU DCT PARYD DCT SISGA DCT KOVIN DCT DUCRA DCT RESMI DCT DEKOD DCT DISAK DCT DIRMO DCT GUERE DCT EVPOK DCT AGN DCT ANETO DCT POSSY DCT ROCME DCT SEROX DCT CASPE DCT MLA DCT CRETA DCT RIMES N860 SAURA SAUR4D LEVC/12 |
| Aircraft | B738/M-LNENV/L |
Departure
| Time | 2026-04-22 11:59 |
|---|---|
| Airport | Copenhagen Kastrup Airport (EKCH) |
Arrival
| Time | 2026-04-22 14:46 |
|---|---|
| Airport | Valencia Airport (LEVC) |
| Time | Latitude | Longitude | Altitude | Speed | Heading |
|---|---|---|---|---|---|
| 2026-04-22 11:31 | 55.62574 | 12.64450 | 23 ft | 0 kts | 33° |
| 2026-04-22 11:45 | 55.62574 | 12.64449 | 23 ft | 0 kts | 33° |
| 2026-04-22 11:49 | 55.62569 | 12.64444 | 26 ft | 4 kts | 34° |
| 2026-04-22 11:49 | 55.62547 | 12.64416 | 28 ft | 4 kts | 34° |
| 2026-04-22 11:49 | 55.62528 | 12.64392 | 28 ft | 4 kts | 58° |
| 2026-04-22 11:49 | 55.62526 | 12.64362 | 28 ft | 4 kts | 136° |
| 2026-04-22 11:50 | 55.62548 | 12.64333 | 28 ft | 4 kts | 142° |
| 2026-04-22 11:50 | 55.62561 | 12.64311 | 26 ft | 0 kts | 123° |
| 2026-04-22 11:53 | 55.62557 | 12.64321 | 26 ft | 4 kts | 123° |
| 2026-04-22 11:53 | 55.62526 | 12.64404 | 24 ft | 11 kts | 123° |
| 2026-04-22 11:53 | 55.62470 | 12.64553 | 23 ft | 18 kts | 123° |
| 2026-04-22 11:53 | 55.62396 | 12.64755 | 25 ft | 21 kts | 123° |
| 2026-04-22 11:54 | 55.62323 | 12.64951 | 23 ft | 18 kts | 123° |
| 2026-04-22 11:54 | 55.62260 | 12.65123 | 25 ft | 16 kts | 123° |
| 2026-04-22 11:54 | 55.62171 | 12.65135 | 23 ft | 15 kts | 213° |
| 2026-04-22 11:54 | 55.62085 | 12.65035 | 23 ft | 15 kts | 213° |
| 2026-04-22 11:55 | 55.61993 | 12.64928 | 23 ft | 18 kts | 212° |
| 2026-04-22 11:55 | 55.61880 | 12.64798 | 25 ft | 21 kts | 213° |
| 2026-04-22 11:55 | 55.61743 | 12.64640 | 23 ft | 26 kts | 213° |
| 2026-04-22 11:55 | 55.61582 | 12.64455 | 26 ft | 30 kts | 213° |
| 2026-04-22 11:56 | 55.61405 | 12.64253 | 23 ft | 30 kts | 213° |
| 2026-04-22 11:56 | 55.61234 | 12.64056 | 27 ft | 28 kts | 213° |
| 2026-04-22 11:56 | 55.61074 | 12.63872 | 24 ft | 27 kts | 213° |
| 2026-04-22 11:56 | 55.60932 | 12.63708 | 25 ft | 20 kts | 213° |
| 2026-04-22 11:57 | 55.60840 | 12.63605 | 25 ft | 12 kts | 210° |
| 2026-04-22 11:57 | 55.60769 | 12.63639 | 25 ft | 11 kts | 131° |
| 2026-04-22 11:57 | 55.60716 | 12.63741 | 23 ft | 11 kts | 132° |
| 2026-04-22 11:57 | 55.60678 | 12.63821 | 24 ft | 3 kts | 130° |
| 2026-04-22 11:58 | 55.60675 | 12.63859 | 28 ft | 4 kts | 66° |
| 2026-04-22 11:58 | 55.60727 | 12.63946 | 26 ft | 23 kts | 41° |
| 2026-04-22 11:58 | 55.61049 | 12.64443 | 22 ft | 100 kts | 41° |
| 2026-04-22 11:58 | 55.61748 | 12.65519 | 32 ft | 163 kts | 37° |
| 2026-04-22 11:59 | 55.62604 | 12.66818 | 828 ft | 161 kts | 34° |
| 2026-04-22 11:59 | 55.63424 | 12.68158 | 1944 ft | 158 kts | 34° |
| 2026-04-22 11:59 | 55.64303 | 12.69527 | 2445 ft | 186 kts | 35° |
| 2026-04-22 11:59 | 55.65341 | 12.71082 | 2899 ft | 205 kts | 34° |
| 2026-04-22 12:00 | 55.66496 | 12.72774 | 3370 ft | 219 kts | 34° |
| 2026-04-22 12:00 | 55.67704 | 12.74536 | 3901 ft | 237 kts | 36° |
| 2026-04-22 12:00 | 55.69020 | 12.76486 | 4567 ft | 248 kts | 33° |
| 2026-04-22 12:00 | 55.70591 | 12.77582 | 5512 ft | 245 kts | 3° |
| 2026-04-22 12:01 | 55.72274 | 12.77166 | 6412 ft | 248 kts | 341° |
| 2026-04-22 12:01 | 55.73765 | 12.75557 | 7237 ft | 257 kts | 319° |
| 2026-04-22 12:01 | 55.74790 | 12.72901 | 8087 ft | 268 kts | 294° |
| 2026-04-22 12:01 | 55.75059 | 12.69576 | 8901 ft | 282 kts | 267° |
| 2026-04-22 12:02 | 55.74478 | 12.66185 | 9750 ft | 294 kts | 246° |
| 2026-04-22 12:02 | 55.73374 | 12.63096 | 10544 ft | 303 kts | 237° |
| 2026-04-22 12:02 | 55.72067 | 12.60035 | 10826 ft | 328 kts | 234° |
| 2026-04-22 12:02 | 55.70553 | 12.56650 | 11043 ft | 354 kts | 234° |
| 2026-04-22 12:03 | 55.68969 | 12.53123 | 11216 ft | 377 kts | 234° |
| 2026-04-22 12:03 | 55.67308 | 12.49393 | 11668 ft | 390 kts | 234° |
| 2026-04-22 12:03 | 55.65625 | 12.45576 | 12377 ft | 394 kts | 234° |
| 2026-04-22 12:03 | 55.63935 | 12.41708 | 13142 ft | 398 kts | 234° |
| 2026-04-22 12:04 | 55.62236 | 12.37801 | 13877 ft | 403 kts | 234° |
| 2026-04-22 12:04 | 55.60511 | 12.33843 | 14533 ft | 408 kts | 233° |
| 2026-04-22 12:04 | 55.58758 | 12.29861 | 15215 ft | 411 kts | 233° |
| 2026-04-22 12:04 | 55.56991 | 12.25846 | 15886 ft | 415 kts | 233° |
| 2026-04-22 12:05 | 55.55216 | 12.21796 | 16512 ft | 419 kts | 233° |
| 2026-04-22 12:05 | 55.53426 | 12.17699 | 17126 ft | 423 kts | 233° |
| 2026-04-22 12:05 | 55.51623 | 12.13553 | 17740 ft | 427 kts | 233° |
| 2026-04-22 12:05 | 55.49823 | 12.09417 | 18352 ft | 431 kts | 233° |
| 2026-04-22 12:06 | 55.47964 | 12.05151 | 18930 ft | 435 kts | 233° |
| 2026-04-22 12:06 | 55.46132 | 12.00950 | 19442 ft | 438 kts | 233° |
| 2026-04-22 12:06 | 55.44266 | 11.96678 | 19962 ft | 441 kts | 232° |
| 2026-04-22 12:06 | 55.42386 | 11.92379 | 20474 ft | 444 kts | 232° |
| 2026-04-22 12:07 | 55.40489 | 11.88050 | 20977 ft | 448 kts | 232° |
| 2026-04-22 12:07 | 55.38579 | 11.83699 | 21480 ft | 451 kts | 232° |
| 2026-04-22 12:07 | 55.36655 | 11.79325 | 21982 ft | 454 kts | 232° |
| 2026-04-22 12:07 | 55.34717 | 11.74927 | 22450 ft | 457 kts | 232° |
| 2026-04-22 12:08 | 55.32762 | 11.70498 | 22917 ft | 460 kts | 232° |
| 2026-04-22 12:08 | 55.30785 | 11.66029 | 23379 ft | 463 kts | 232° |
| 2026-04-22 12:08 | 55.28801 | 11.61552 | 23831 ft | 466 kts | 232° |
| 2026-04-22 12:08 | 55.26798 | 11.57038 | 24200 ft | 469 kts | 232° |
| 2026-04-22 12:09 | 55.24784 | 11.52511 | 24551 ft | 472 kts | 232° |
| 2026-04-22 12:09 | 55.22754 | 11.47955 | 24889 ft | 476 kts | 232° |
| 2026-04-22 12:09 | 55.20705 | 11.43364 | 25230 ft | 478 kts | 232° |
| 2026-04-22 12:09 | 55.18648 | 11.38762 | 25567 ft | 481 kts | 232° |
| 2026-04-22 12:10 | 55.16580 | 11.34147 | 25892 ft | 484 kts | 232° |
| 2026-04-22 12:10 | 55.14524 | 11.29566 | 26220 ft | 486 kts | 231° |
| 2026-04-22 12:10 | 55.12404 | 11.24851 | 26695 ft | 485 kts | 231° |
| 2026-04-22 12:10 | 55.10319 | 11.20224 | 27226 ft | 482 kts | 231° |
| 2026-04-22 12:11 | 55.08241 | 11.15619 | 27710 ft | 481 kts | 231° |
| 2026-04-22 12:11 | 55.06170 | 11.11040 | 28131 ft | 482 kts | 231° |
| 2026-04-22 12:11 | 55.04115 | 11.06504 | 28564 ft | 482 kts | 231° |
| 2026-04-22 12:11 | 55.02042 | 11.01936 | 29033 ft | 481 kts | 231° |
| 2026-04-22 12:12 | 54.99965 | 10.97367 | 29517 ft | 480 kts | 231° |
| 2026-04-22 12:12 | 54.97895 | 10.92819 | 29982 ft | 479 kts | 231° |
| 2026-04-22 12:12 | 54.95822 | 10.88276 | 30441 ft | 478 kts | 231° |
| 2026-04-22 12:12 | 54.93753 | 10.83734 | 30800 ft | 478 kts | 231° |
| 2026-04-22 12:13 | 54.91720 | 10.79166 | 31131 ft | 478 kts | 232° |
| 2026-04-22 12:13 | 54.89696 | 10.74560 | 31453 ft | 479 kts | 232° |
| 2026-04-22 12:13 | 54.88351 | 10.71495 | 31684 ft | 479 kts | 232° |
| 2026-04-22 12:13 | 54.85666 | 10.65415 | 32149 ft | 479 kts | 231° |
| 2026-04-22 12:14 | 54.83629 | 10.60828 | 32480 ft | 479 kts | 232° |
| 2026-04-22 12:14 | 54.81729 | 10.56078 | 32796 ft | 480 kts | 237° |
| 2026-04-22 12:14 | 54.80541 | 10.52769 | 33019 ft | 480 kts | 238° |
| 2026-04-22 12:14 | 54.78824 | 10.47807 | 33350 ft | 480 kts | 239° |
| 2026-04-22 12:15 | 54.77107 | 10.42825 | 33670 ft | 480 kts | 238° |
| 2026-04-22 12:15 | 54.75372 | 10.37886 | 33980 ft | 480 kts | 238° |
| 2026-04-22 12:15 | 54.73641 | 10.33046 | 34310 ft | 480 kts | 237° |
| 2026-04-22 12:15 | 54.71848 | 10.28177 | 34584 ft | 479 kts | 234° |
| 2026-04-22 12:16 | 54.69768 | 10.23703 | 34845 ft | 477 kts | 226° |
| 2026-04-22 12:16 | 54.67497 | 10.19508 | 35147 ft | 476 kts | 225° |
| 2026-04-22 12:16 | 54.65205 | 10.15386 | 35425 ft | 475 kts | 224° |
| 2026-04-22 12:16 | 54.62904 | 10.11278 | 35677 ft | 475 kts | 225° |
| 2026-04-22 12:17 | 54.60608 | 10.07169 | 35926 ft | 475 kts | 225° |
| 2026-04-22 12:17 | 54.58328 | 10.03064 | 36192 ft | 474 kts | 225° |
| 2026-04-22 12:17 | 54.56056 | 9.98954 | 36456 ft | 473 kts | 225° |
| 2026-04-22 12:17 | 54.53788 | 9.94841 | 36707 ft | 473 kts | 225° |
| 2026-04-22 12:18 | 54.51524 | 9.90731 | 36934 ft | 473 kts | 225° |
| 2026-04-22 12:18 | 54.49263 | 9.86630 | 37188 ft | 472 kts | 225° |
| 2026-04-22 12:18 | 54.47000 | 9.82530 | 37437 ft | 472 kts | 225° |
| 2026-04-22 12:18 | 54.44732 | 9.78430 | 37651 ft | 472 kts | 225° |
| 2026-04-22 12:19 | 54.42471 | 9.74348 | 37880 ft | 471 kts | 225° |
| 2026-04-22 12:19 | 54.40202 | 9.70263 | 38112 ft | 471 kts | 225° |
| 2026-04-22 12:19 | 54.37944 | 9.66203 | 38313 ft | 471 kts | 225° |
| 2026-04-22 12:19 | 54.35677 | 9.62135 | 38366 ft | 472 kts | 225° |
| 2026-04-22 12:20 | 54.31128 | 9.53995 | 38382 ft | 472 kts | 225° |
| 2026-04-22 12:20 | 54.26622 | 9.45957 | 38363 ft | 470 kts | 225° |
| 2026-04-22 12:21 | 54.22099 | 9.37917 | 38378 ft | 468 kts | 225° |
| 2026-04-22 12:21 | 54.17584 | 9.29917 | 38371 ft | 466 kts | 225° |
| 2026-04-22 12:22 | 54.13071 | 9.21950 | 38373 ft | 465 kts | 225° |
| 2026-04-22 12:22 | 54.08605 | 9.14089 | 38384 ft | 465 kts | 225° |
| 2026-04-22 12:23 | 54.04074 | 9.06142 | 38382 ft | 465 kts | 225° |
| 2026-04-22 12:23 | 53.99586 | 8.98295 | 38392 ft | 465 kts | 225° |
| 2026-04-22 12:24 | 53.95064 | 8.90416 | 38395 ft | 466 kts | 225° |
| 2026-04-22 12:24 | 53.90517 | 8.82520 | 38396 ft | 467 kts | 225° |
| 2026-04-22 12:25 | 53.85971 | 8.74650 | 38403 ft | 467 kts | 225° |
| 2026-04-22 12:25 | 53.81417 | 8.66793 | 38406 ft | 468 kts | 225° |
| 2026-04-22 12:26 | 53.76875 | 8.58982 | 38402 ft | 468 kts | 225° |
| 2026-04-22 12:26 | 53.72300 | 8.51142 | 38404 ft | 469 kts | 225° |
| 2026-04-22 12:27 | 53.67717 | 8.43312 | 38398 ft | 469 kts | 225° |
| 2026-04-22 12:27 | 53.63133 | 8.35507 | 38401 ft | 468 kts | 225° |
| 2026-04-22 12:28 | 53.58544 | 8.27719 | 38403 ft | 467 kts | 225° |
| 2026-04-22 12:28 | 53.53959 | 8.19963 | 38400 ft | 467 kts | 225° |
| 2026-04-22 12:29 | 53.49375 | 8.12233 | 38403 ft | 466 kts | 225° |
| 2026-04-22 12:29 | 53.44830 | 8.04593 | 38403 ft | 465 kts | 225° |
| 2026-04-22 12:30 | 53.37968 | 7.93107 | 38399 ft | 464 kts | 225° |
| 2026-04-22 12:31 | 53.33390 | 7.85474 | 38401 ft | 464 kts | 225° |
| 2026-04-22 12:31 | 53.28820 | 7.77879 | 38395 ft | 463 kts | 225° |
| 2026-04-22 12:32 | 53.24236 | 7.70285 | 38400 ft | 463 kts | 225° |
| 2026-04-22 12:32 | 53.17363 | 7.58943 | 38396 ft | 463 kts | 225° |
| 2026-04-22 12:33 | 53.12812 | 7.51462 | 38402 ft | 463 kts | 225° |
| 2026-04-22 12:33 | 53.08224 | 7.43941 | 38398 ft | 463 kts | 225° |
| 2026-04-22 12:34 | 53.03623 | 7.36430 | 38397 ft | 463 kts | 224° |
| 2026-04-22 12:34 | 52.98855 | 7.29243 | 38394 ft | 463 kts | 221° |
| 2026-04-22 12:35 | 52.93983 | 7.22243 | 38403 ft | 463 kts | 221° |
| 2026-04-22 12:35 | 52.89109 | 7.15219 | 38397 ft | 463 kts | 221° |
| 2026-04-22 12:36 | 52.84275 | 7.08208 | 38402 ft | 463 kts | 221° |
| 2026-04-22 12:36 | 52.79432 | 7.01176 | 38393 ft | 463 kts | 221° |
| 2026-04-22 12:37 | 52.74592 | 6.94165 | 38395 ft | 462 kts | 221° |
| 2026-04-22 12:37 | 52.69746 | 6.87169 | 38389 ft | 462 kts | 221° |
| 2026-04-22 12:38 | 52.64900 | 6.80196 | 38390 ft | 462 kts | 221° |
| 2026-04-22 12:38 | 52.60058 | 6.73251 | 38383 ft | 462 kts | 221° |
| 2026-04-22 12:39 | 52.52755 | 6.62815 | 38818 ft | 463 kts | 221° |
| 2026-04-22 12:39 | 52.50327 | 6.59357 | 39073 ft | 461 kts | 221° |
| 2026-04-22 12:40 | 52.47869 | 6.55860 | 39233 ft | 461 kts | 221° |
| 2026-04-22 12:40 | 52.45446 | 6.52419 | 39345 ft | 461 kts | 221° |
| 2026-04-22 12:40 | 52.43010 | 6.48965 | 39374 ft | 463 kts | 221° |
| 2026-04-22 12:41 | 52.38155 | 6.42095 | 39379 ft | 464 kts | 221° |
| 2026-04-22 12:41 | 52.33269 | 6.35203 | 39378 ft | 462 kts | 221° |
| 2026-04-22 12:42 | 52.28406 | 6.28364 | 39371 ft | 461 kts | 221° |
| 2026-04-22 12:42 | 52.23548 | 6.21554 | 39373 ft | 460 kts | 221° |
| 2026-04-22 12:43 | 52.18693 | 6.14767 | 39370 ft | 459 kts | 221° |
| 2026-04-22 12:43 | 52.13848 | 6.08013 | 39373 ft | 458 kts | 221° |
| 2026-04-22 12:44 | 52.09003 | 6.01281 | 39377 ft | 458 kts | 221° |
| 2026-04-22 12:44 | 52.04153 | 5.94562 | 39375 ft | 458 kts | 221° |
| 2026-04-22 12:45 | 51.99323 | 5.87889 | 39373 ft | 458 kts | 221° |
| 2026-04-22 12:45 | 51.94462 | 5.81193 | 39377 ft | 459 kts | 221° |
| 2026-04-22 12:46 | 51.89549 | 5.74447 | 39368 ft | 459 kts | 221° |
| 2026-04-22 12:46 | 51.84665 | 5.67758 | 39372 ft | 460 kts | 221° |
| 2026-04-22 12:47 | 51.79757 | 5.61058 | 39373 ft | 460 kts | 221° |
| 2026-04-22 12:47 | 51.74852 | 5.54381 | 39373 ft | 461 kts | 221° |
| 2026-04-22 12:48 | 51.69934 | 5.47706 | 39375 ft | 461 kts | 221° |
| 2026-04-22 12:48 | 51.65038 | 5.41081 | 39374 ft | 462 kts | 221° |
| 2026-04-22 12:49 | 51.60904 | 5.35503 | 39370 ft | 462 kts | 221° |
| 2026-04-22 12:49 | 51.55966 | 5.28857 | 39371 ft | 462 kts | 221° |
| 2026-04-22 12:50 | 51.51053 | 5.22264 | 39378 ft | 462 kts | 221° |
| 2026-04-22 12:50 | 51.46113 | 5.15654 | 39371 ft | 462 kts | 221° |
| 2026-04-22 12:51 | 51.41170 | 5.09058 | 39364 ft | 461 kts | 221° |
| 2026-04-22 12:51 | 51.36278 | 5.02552 | 39133 ft | 450 kts | 221° |
| 2026-04-22 12:51 | 51.33875 | 4.99363 | 38582 ft | 449 kts | 221° |
| 2026-04-22 12:52 | 51.31523 | 4.96246 | 38401 ft | 439 kts | 221° |
| 2026-04-22 12:52 | 51.26792 | 4.89985 | 38363 ft | 445 kts | 221° |
| 2026-04-22 12:53 | 51.21972 | 4.83621 | 38391 ft | 453 kts | 221° |
| 2026-04-22 12:53 | 51.17077 | 4.77181 | 38590 ft | 458 kts | 221° |
| 2026-04-22 12:53 | 51.14616 | 4.73951 | 38799 ft | 458 kts | 221° |
| 2026-04-22 12:54 | 51.12160 | 4.70733 | 39041 ft | 457 kts | 221° |
| 2026-04-22 12:54 | 51.09707 | 4.67524 | 39201 ft | 456 kts | 221° |
| 2026-04-22 12:54 | 51.07282 | 4.64354 | 39312 ft | 456 kts | 221° |
| 2026-04-22 12:55 | 51.02352 | 4.57922 | 39337 ft | 459 kts | 221° |
| 2026-04-22 12:55 | 50.97412 | 4.51498 | 39352 ft | 458 kts | 221° |
| 2026-04-22 12:56 | 50.92474 | 4.45094 | 39351 ft | 458 kts | 221° |
| 2026-04-22 12:56 | 50.87542 | 4.38715 | 39346 ft | 458 kts | 221° |
| 2026-04-22 12:57 | 50.82635 | 4.32386 | 39348 ft | 457 kts | 221° |
| 2026-04-22 12:57 | 50.77693 | 4.26028 | 39336 ft | 457 kts | 221° |
| 2026-04-22 12:58 | 50.72756 | 4.19696 | 39334 ft | 456 kts | 221° |
| 2026-04-22 12:58 | 50.67824 | 4.13384 | 39316 ft | 456 kts | 221° |
| 2026-04-22 12:59 | 50.62881 | 4.07083 | 39310 ft | 456 kts | 221° |
| 2026-04-22 12:59 | 50.57525 | 4.01780 | 39313 ft | 459 kts | 211° |
| 2026-04-22 13:00 | 50.51892 | 3.97046 | 39305 ft | 459 kts | 210° |
| 2026-04-22 13:00 | 50.46263 | 3.92323 | 39296 ft | 458 kts | 211° |
| 2026-04-22 13:01 | 50.40651 | 3.87556 | 39294 ft | 458 kts | 211° |
| 2026-04-22 13:01 | 50.35040 | 3.82770 | 39288 ft | 459 kts | 211° |
| 2026-04-22 13:02 | 50.29429 | 3.77990 | 39287 ft | 459 kts | 211° |
| 2026-04-22 13:02 | 50.23803 | 3.73214 | 39281 ft | 459 kts | 211° |
| 2026-04-22 13:03 | 50.18188 | 3.68462 | 39279 ft | 459 kts | 211° |
| 2026-04-22 13:03 | 50.12599 | 3.63744 | 39279 ft | 459 kts | 211° |
| 2026-04-22 13:04 | 50.06979 | 3.59013 | 39273 ft | 459 kts | 211° |
| 2026-04-22 13:04 | 50.01357 | 3.54293 | 39267 ft | 459 kts | 211° |
| 2026-04-22 13:05 | 49.95723 | 3.49576 | 39259 ft | 460 kts | 211° |
| 2026-04-22 13:05 | 49.90078 | 3.44862 | 39265 ft | 460 kts | 211° |
| 2026-04-22 13:06 | 49.84448 | 3.40173 | 39267 ft | 459 kts | 211° |
| 2026-04-22 13:06 | 49.78842 | 3.35517 | 39253 ft | 459 kts | 211° |
| 2026-04-22 13:07 | 49.73208 | 3.30849 | 39246 ft | 459 kts | 211° |
| 2026-04-22 13:07 | 49.67571 | 3.26192 | 39242 ft | 458 kts | 211° |
| 2026-04-22 13:08 | 49.61953 | 3.21561 | 39240 ft | 457 kts | 211° |
| 2026-04-22 13:08 | 49.56353 | 3.16957 | 39239 ft | 455 kts | 211° |
| 2026-04-22 13:09 | 49.50795 | 3.12399 | 39235 ft | 454 kts | 211° |
| 2026-04-22 13:09 | 49.45361 | 3.07491 | 39239 ft | 451 kts | 217° |
| 2026-04-22 13:10 | 49.40158 | 3.02144 | 39234 ft | 449 kts | 218° |
| 2026-04-22 13:10 | 49.34969 | 2.96797 | 39225 ft | 449 kts | 217° |
| 2026-04-22 13:11 | 49.29767 | 2.91511 | 39227 ft | 448 kts | 217° |
| 2026-04-22 13:11 | 49.24548 | 2.86249 | 39222 ft | 448 kts | 217° |
| 2026-04-22 13:12 | 49.19686 | 2.81362 | 39219 ft | 449 kts | 217° |
| 2026-04-22 13:12 | 49.14457 | 2.76118 | 39213 ft | 449 kts | 217° |
| 2026-04-22 13:13 | 49.09221 | 2.70878 | 39213 ft | 449 kts | 217° |
| 2026-04-22 13:13 | 49.04006 | 2.65673 | 39219 ft | 449 kts | 217° |
| 2026-04-22 13:14 | 48.98943 | 2.60630 | 39210 ft | 449 kts | 217° |
| 2026-04-22 13:14 | 48.93703 | 2.55427 | 39211 ft | 448 kts | 217° |
| 2026-04-22 13:15 | 48.89903 | 2.51661 | 39213 ft | 447 kts | 217° |
| 2026-04-22 13:15 | 48.84700 | 2.46512 | 39205 ft | 446 kts | 217° |
| 2026-04-22 13:16 | 48.79499 | 2.41376 | 39206 ft | 443 kts | 217° |
| 2026-04-22 13:16 | 48.74334 | 2.36288 | 39204 ft | 441 kts | 217° |
| 2026-04-22 13:17 | 48.69202 | 2.31244 | 39205 ft | 439 kts | 217° |
| 2026-04-22 13:17 | 48.64104 | 2.26244 | 39204 ft | 437 kts | 217° |
| 2026-04-22 13:18 | 48.58976 | 2.21253 | 39192 ft | 438 kts | 214° |
| 2026-04-22 13:18 | 48.53285 | 2.17833 | 39166 ft | 448 kts | 196° |
| 2026-04-22 13:19 | 48.47178 | 2.15956 | 39162 ft | 450 kts | 195° |
| 2026-04-22 13:19 | 48.41035 | 2.14084 | 39151 ft | 451 kts | 196° |
| 2026-04-22 13:20 | 48.34869 | 2.12110 | 39147 ft | 453 kts | 196° |
| 2026-04-22 13:20 | 48.28637 | 2.10419 | 39134 ft | 460 kts | 187° |
| 2026-04-22 13:20 | 48.25420 | 2.10441 | 39133 ft | 465 kts | 176° |
| 2026-04-22 13:21 | 48.22212 | 2.11129 | 39165 ft | 467 kts | 173° |
| 2026-04-22 13:21 | 48.15818 | 2.12671 | 39136 ft | 469 kts | 174° |
| 2026-04-22 13:22 | 48.09343 | 2.13632 | 39159 ft | 467 kts | 180° |
| 2026-04-22 13:22 | 48.02849 | 2.13942 | 39150 ft | 468 kts | 182° |
| 2026-04-22 13:23 | 47.96336 | 2.14222 | 39151 ft | 468 kts | 181° |
| 2026-04-22 13:23 | 47.89829 | 2.14565 | 39159 ft | 467 kts | 181° |
| 2026-04-22 13:24 | 47.83325 | 2.14941 | 39150 ft | 466 kts | 181° |
| 2026-04-22 13:24 | 47.76838 | 2.15321 | 39147 ft | 465 kts | 181° |
| 2026-04-22 13:25 | 47.70370 | 2.15697 | 39136 ft | 464 kts | 181° |
| 2026-04-22 13:25 | 47.63953 | 2.16067 | 39124 ft | 463 kts | 181° |
| 2026-04-22 13:26 | 47.57517 | 2.16436 | 39113 ft | 462 kts | 181° |
| 2026-04-22 13:26 | 47.51031 | 2.16808 | 39103 ft | 461 kts | 181° |
| 2026-04-22 13:27 | 47.44608 | 2.17175 | 39103 ft | 461 kts | 181° |
| 2026-04-22 13:27 | 47.38192 | 2.17541 | 39092 ft | 461 kts | 181° |
| 2026-04-22 13:28 | 47.31752 | 2.17907 | 39099 ft | 462 kts | 181° |
| 2026-04-22 13:28 | 47.25345 | 2.18270 | 39085 ft | 463 kts | 181° |
| 2026-04-22 13:29 | 47.19985 | 2.18574 | 39091 ft | 463 kts | 181° |
| 2026-04-22 13:29 | 47.12470 | 2.18998 | 39080 ft | 465 kts | 181° |
| 2026-04-22 13:30 | 47.07082 | 2.19134 | 39074 ft | 463 kts | 187° |
| 2026-04-22 13:30 | 47.00651 | 2.18418 | 39074 ft | 462 kts | 189° |
| 2026-04-22 13:31 | 46.94233 | 2.17556 | 39079 ft | 463 kts | 189° |
| 2026-04-22 13:31 | 46.87795 | 2.16754 | 39068 ft | 464 kts | 188° |
| 2026-04-22 13:32 | 46.81347 | 2.16001 | 39074 ft | 464 kts | 188° |
| 2026-04-22 13:32 | 46.74918 | 2.15265 | 39069 ft | 463 kts | 188° |
| 2026-04-22 13:33 | 46.68491 | 2.14529 | 39066 ft | 462 kts | 188° |
| 2026-04-22 13:33 | 46.62087 | 2.13797 | 39071 ft | 461 kts | 188° |
| 2026-04-22 13:34 | 46.55723 | 2.13069 | 39059 ft | 460 kts | 188° |
| 2026-04-22 13:34 | 46.49344 | 2.12341 | 39069 ft | 459 kts | 188° |
| 2026-04-22 13:35 | 46.42970 | 2.11615 | 39057 ft | 458 kts | 188° |
| 2026-04-22 13:35 | 46.36648 | 2.10897 | 39055 ft | 457 kts | 188° |
| 2026-04-22 13:36 | 46.30295 | 2.10176 | 39056 ft | 456 kts | 188° |
| 2026-04-22 13:36 | 46.23963 | 2.09459 | 39048 ft | 455 kts | 189° |
| 2026-04-22 13:36 | 46.20866 | 2.08710 | 39048 ft | 449 kts | 200° |
| 2026-04-22 13:37 | 46.17921 | 2.07247 | 39058 ft | 443 kts | 208° |
| 2026-04-22 13:37 | 46.15206 | 2.05226 | 39029 ft | 437 kts | 219° |
| 2026-04-22 13:37 | 46.12709 | 2.02740 | 39052 ft | 434 kts | 220° |
| 2026-04-22 13:38 | 46.07804 | 1.97699 | 39041 ft | 435 kts | 220° |
| 2026-04-22 13:38 | 46.00359 | 1.90131 | 39037 ft | 437 kts | 220° |
| 2026-04-22 13:39 | 45.95399 | 1.85152 | 39036 ft | 438 kts | 220° |
| 2026-04-22 13:39 | 45.90382 | 1.80136 | 39036 ft | 438 kts | 220° |
| 2026-04-22 13:40 | 45.85363 | 1.75131 | 39026 ft | 439 kts | 220° |
| 2026-04-22 13:40 | 45.80345 | 1.70135 | 39035 ft | 439 kts | 219° |
| 2026-04-22 13:41 | 45.75327 | 1.65150 | 39019 ft | 439 kts | 219° |
| 2026-04-22 13:41 | 45.70334 | 1.60200 | 39022 ft | 438 kts | 219° |
| 2026-04-22 13:42 | 45.65284 | 1.55206 | 39015 ft | 437 kts | 219° |
| 2026-04-22 13:42 | 45.60340 | 1.50326 | 39016 ft | 435 kts | 219° |
| 2026-04-22 13:43 | 45.55385 | 1.45444 | 39015 ft | 434 kts | 219° |
| 2026-04-22 13:43 | 45.50403 | 1.40549 | 39005 ft | 434 kts | 219° |
| 2026-04-22 13:44 | 45.44961 | 1.36690 | 39001 ft | 443 kts | 200° |
| 2026-04-22 13:44 | 45.38939 | 1.34672 | 38994 ft | 445 kts | 196° |
| 2026-04-22 13:45 | 45.32910 | 1.32823 | 38994 ft | 445 kts | 196° |
| 2026-04-22 13:45 | 45.26859 | 1.30922 | 38991 ft | 445 kts | 197° |
| 2026-04-22 13:46 | 45.20799 | 1.28976 | 38999 ft | 446 kts | 197° |
| 2026-04-22 13:46 | 45.14737 | 1.27018 | 38988 ft | 447 kts | 197° |
| 2026-04-22 13:47 | 45.08694 | 1.25069 | 38987 ft | 448 kts | 197° |
| 2026-04-22 13:47 | 45.02611 | 1.23113 | 38989 ft | 448 kts | 197° |
| 2026-04-22 13:48 | 44.96513 | 1.21158 | 38992 ft | 448 kts | 197° |
| 2026-04-22 13:48 | 44.90422 | 1.19209 | 38975 ft | 449 kts | 197° |
| 2026-04-22 13:49 | 44.84369 | 1.17277 | 38981 ft | 448 kts | 197° |
| 2026-04-22 13:49 | 44.78265 | 1.15332 | 38975 ft | 449 kts | 197° |
| 2026-04-22 13:50 | 44.72163 | 1.13392 | 38975 ft | 448 kts | 197° |
| 2026-04-22 13:50 | 44.66108 | 1.11472 | 38975 ft | 448 kts | 197° |
| 2026-04-22 13:51 | 44.60019 | 1.09544 | 38973 ft | 447 kts | 197° |
| 2026-04-22 13:51 | 44.53945 | 1.07626 | 38970 ft | 447 kts | 197° |
| 2026-04-22 13:52 | 44.47880 | 1.05715 | 38975 ft | 446 kts | 197° |
| 2026-04-22 13:52 | 44.41846 | 1.03817 | 38975 ft | 446 kts | 197° |
| 2026-04-22 13:53 | 44.35776 | 1.01912 | 38972 ft | 446 kts | 197° |
| 2026-04-22 13:53 | 44.29716 | 1.00014 | 38972 ft | 446 kts | 197° |
| 2026-04-22 13:54 | 44.23665 | 0.98122 | 38964 ft | 446 kts | 197° |
| 2026-04-22 13:54 | 44.17608 | 0.96233 | 38973 ft | 445 kts | 197° |
| 2026-04-22 13:55 | 44.11552 | 0.94348 | 38970 ft | 445 kts | 197° |
| 2026-04-22 13:55 | 44.05497 | 0.92468 | 38966 ft | 445 kts | 197° |
| 2026-04-22 13:56 | 43.99447 | 0.90592 | 38958 ft | 445 kts | 197° |
| 2026-04-22 13:56 | 43.93395 | 0.88720 | 38971 ft | 445 kts | 197° |
| 2026-04-22 13:57 | 43.87340 | 0.86866 | 38977 ft | 446 kts | 196° |
| 2026-04-22 13:57 | 43.81243 | 0.85206 | 38972 ft | 446 kts | 195° |
| 2026-04-22 13:58 | 43.75128 | 0.83609 | 38968 ft | 446 kts | 195° |
| 2026-04-22 13:58 | 43.69026 | 0.82000 | 38968 ft | 446 kts | 195° |
| 2026-04-22 13:59 | 43.62971 | 0.80390 | 38977 ft | 446 kts | 195° |
| 2026-04-22 13:59 | 43.56866 | 0.78763 | 38971 ft | 447 kts | 195° |
| 2026-04-22 14:00 | 43.50761 | 0.77140 | 38980 ft | 447 kts | 195° |
| 2026-04-22 14:00 | 43.44653 | 0.75519 | 38980 ft | 447 kts | 195° |
| 2026-04-22 14:01 | 43.38544 | 0.73902 | 38982 ft | 447 kts | 195° |
| 2026-04-22 14:01 | 43.32430 | 0.72287 | 38988 ft | 447 kts | 195° |
| 2026-04-22 14:02 | 43.26321 | 0.70677 | 38983 ft | 447 kts | 195° |
| 2026-04-22 14:02 | 43.20215 | 0.69071 | 38992 ft | 447 kts | 195° |
| 2026-04-22 14:03 | 43.14142 | 0.67476 | 38999 ft | 447 kts | 195° |
| 2026-04-22 14:03 | 43.08025 | 0.65873 | 39002 ft | 448 kts | 195° |
| 2026-04-22 14:04 | 43.01892 | 0.64270 | 39009 ft | 448 kts | 195° |
| 2026-04-22 14:04 | 42.95749 | 0.62666 | 39010 ft | 449 kts | 194° |
| 2026-04-22 14:05 | 42.89636 | 0.61075 | 39014 ft | 449 kts | 194° |
| 2026-04-22 14:06 | 42.80430 | 0.58683 | 39052 ft | 449 kts | 194° |
| 2026-04-22 14:06 | 42.74256 | 0.57082 | 39016 ft | 451 kts | 194° |
| 2026-04-22 14:07 | 42.68168 | 0.55148 | 39008 ft | 446 kts | 205° |
| 2026-04-22 14:07 | 42.62594 | 0.51666 | 38998 ft | 442 kts | 210° |
| 2026-04-22 14:08 | 42.57962 | 0.48614 | 38998 ft | 440 kts | 210° |
| 2026-04-22 14:08 | 42.52468 | 0.45047 | 38987 ft | 441 kts | 209° |
| 2026-04-22 14:09 | 42.46918 | 0.41498 | 38986 ft | 441 kts | 209° |
| 2026-04-22 14:09 | 42.41363 | 0.37968 | 38974 ft | 441 kts | 209° |
| 2026-04-22 14:10 | 42.35789 | 0.34432 | 38968 ft | 441 kts | 209° |
| 2026-04-22 14:10 | 42.30223 | 0.30906 | 38963 ft | 442 kts | 209° |
| 2026-04-22 14:11 | 42.24643 | 0.27378 | 38961 ft | 443 kts | 209° |
| 2026-04-22 14:11 | 42.19048 | 0.23847 | 38959 ft | 443 kts | 209° |
| 2026-04-22 14:12 | 42.13455 | 0.20323 | 38948 ft | 444 kts | 209° |
| 2026-04-22 14:12 | 42.07776 | 0.17036 | 38939 ft | 448 kts | 199° |
| 2026-04-22 14:13 | 42.01566 | 0.15935 | 38941 ft | 455 kts | 180° |
| 2026-04-22 14:13 | 41.95226 | 0.16542 | 38943 ft | 456 kts | 178° |
| 2026-04-22 14:14 | 41.88884 | 0.17207 | 38950 ft | 456 kts | 179° |
| 2026-04-22 14:14 | 41.82545 | 0.17781 | 38951 ft | 456 kts | 179° |
| 2026-04-22 14:15 | 41.76195 | 0.18330 | 38949 ft | 456 kts | 179° |
| 2026-04-22 14:15 | 41.69863 | 0.18879 | 38956 ft | 456 kts | 179° |
| 2026-04-22 14:16 | 41.63512 | 0.19427 | 38938 ft | 455 kts | 179° |
| 2026-04-22 14:16 | 41.60383 | 0.19673 | 38721 ft | 447 kts | 182° |
| 2026-04-22 14:16 | 41.57326 | 0.19406 | 38068 ft | 442 kts | 194° |
| 2026-04-22 14:16 | 41.54311 | 0.18567 | 37330 ft | 444 kts | 196° |
| 2026-04-22 14:17 | 41.51247 | 0.17631 | 36590 ft | 447 kts | 196° |
| 2026-04-22 14:17 | 41.48235 | 0.16700 | 35904 ft | 449 kts | 196° |
| 2026-04-22 14:17 | 41.45182 | 0.15767 | 35266 ft | 451 kts | 196° |
| 2026-04-22 14:17 | 41.42117 | 0.14848 | 34644 ft | 451 kts | 195° |
| 2026-04-22 14:18 | 41.39088 | 0.13955 | 34066 ft | 451 kts | 195° |
| 2026-04-22 14:18 | 41.35932 | 0.13036 | 33370 ft | 452 kts | 195° |
| 2026-04-22 14:18 | 41.32842 | 0.12142 | 32636 ft | 453 kts | 195° |
| 2026-04-22 14:18 | 41.29789 | 0.11262 | 31900 ft | 455 kts | 195° |
| 2026-04-22 14:19 | 41.26680 | 0.10368 | 31166 ft | 456 kts | 194° |
| 2026-04-22 14:19 | 41.23573 | 0.09474 | 30440 ft | 457 kts | 194° |
| 2026-04-22 14:19 | 41.20451 | 0.08578 | 29652 ft | 457 kts | 194° |
| 2026-04-22 14:19 | 41.17336 | 0.07684 | 28793 ft | 457 kts | 194° |
| 2026-04-22 14:20 | 41.11134 | 0.05904 | 26968 ft | 458 kts | 194° |
| 2026-04-22 14:20 | 41.08019 | 0.05012 | 26041 ft | 459 kts | 194° |
| 2026-04-22 14:20 | 41.04887 | 0.04115 | 25188 ft | 459 kts | 194° |
| 2026-04-22 14:21 | 40.98739 | 0.02362 | 24025 ft | 444 kts | 194° |
| 2026-04-22 14:21 | 40.95734 | 0.01505 | 23388 ft | 439 kts | 195° |
| 2026-04-22 14:22 | 40.89817 | -0.00182 | 21877 ft | 431 kts | 195° |
| 2026-04-22 14:22 | 40.86889 | -0.01016 | 21101 ft | 428 kts | 195° |
| 2026-04-22 14:22 | 40.81141 | -0.02652 | 19700 ft | 420 kts | 195° |
| 2026-04-22 14:23 | 40.78288 | -0.03461 | 19072 ft | 415 kts | 195° |
| 2026-04-22 14:23 | 40.75475 | -0.04259 | 18454 ft | 410 kts | 195° |
| 2026-04-22 14:23 | 40.72694 | -0.05047 | 17773 ft | 406 kts | 195° |
| 2026-04-22 14:23 | 40.69978 | -0.05815 | 17123 ft | 401 kts | 195° |
| 2026-04-22 14:24 | 40.67268 | -0.06581 | 16495 ft | 395 kts | 195° |
| 2026-04-22 14:24 | 40.64586 | -0.07339 | 15875 ft | 390 kts | 195° |
| 2026-04-22 14:24 | 40.61935 | -0.08088 | 15222 ft | 386 kts | 195° |
| 2026-04-22 14:24 | 40.59311 | -0.08829 | 14583 ft | 383 kts | 195° |
| 2026-04-22 14:25 | 40.56744 | -0.09554 | 13991 ft | 379 kts | 195° |
| 2026-04-22 14:25 | 40.54167 | -0.10280 | 13355 ft | 376 kts | 195° |
| 2026-04-22 14:25 | 40.51613 | -0.11001 | 12685 ft | 373 kts | 195° |
| 2026-04-22 14:25 | 40.49087 | -0.11712 | 12248 ft | 371 kts | 195° |
| 2026-04-22 14:26 | 40.46556 | -0.12425 | 12130 ft | 372 kts | 195° |
| 2026-04-22 14:26 | 40.44048 | -0.13131 | 12049 ft | 375 kts | 195° |
| 2026-04-22 14:26 | 40.41529 | -0.13838 | 12019 ft | 357 kts | 195° |
| 2026-04-22 14:26 | 40.39193 | -0.14488 | 12009 ft | 329 kts | 195° |
| 2026-04-22 14:27 | 40.36949 | -0.15114 | 11890 ft | 308 kts | 196° |
| 2026-04-22 14:27 | 40.34934 | -0.15679 | 11797 ft | 291 kts | 196° |
| 2026-04-22 14:27 | 40.32987 | -0.16223 | 11441 ft | 283 kts | 197° |
| 2026-04-22 14:27 | 40.31061 | -0.16767 | 10960 ft | 282 kts | 196° |
| 2026-04-22 14:28 | 40.29137 | -0.17307 | 10509 ft | 282 kts | 196° |
| 2026-04-22 14:28 | 40.27264 | -0.17830 | 10133 ft | 277 kts | 195° |
| 2026-04-22 14:28 | 40.25383 | -0.18366 | 9693 ft | 272 kts | 197° |
| 2026-04-22 14:28 | 40.23540 | -0.19036 | 9168 ft | 280 kts | 200° |
| 2026-04-22 14:29 | 40.21665 | -0.19788 | 8874 ft | 278 kts | 201° |
| 2026-04-22 14:29 | 40.19863 | -0.20529 | 8651 ft | 273 kts | 200° |
| 2026-04-22 14:29 | 40.18058 | -0.21270 | 8429 ft | 269 kts | 200° |
| 2026-04-22 14:29 | 40.16267 | -0.22000 | 8102 ft | 269 kts | 200° |
| 2026-04-22 14:30 | 40.14477 | -0.22724 | 7832 ft | 270 kts | 200° |
| 2026-04-22 14:30 | 40.12676 | -0.23449 | 7486 ft | 271 kts | 199° |
| 2026-04-22 14:30 | 40.10883 | -0.24166 | 7286 ft | 268 kts | 199° |
| 2026-04-22 14:30 | 40.09104 | -0.24876 | 7131 ft | 267 kts | 200° |
| 2026-04-22 14:31 | 40.07332 | -0.25585 | 7009 ft | 270 kts | 199° |
| 2026-04-22 14:31 | 40.05544 | -0.26295 | 6999 ft | 266 kts | 199° |
| 2026-04-22 14:31 | 40.03765 | -0.26997 | 7000 ft | 267 kts | 199° |
| 2026-04-22 14:31 | 40.01978 | -0.27707 | 6988 ft | 268 kts | 200° |
| 2026-04-22 14:32 | 40.00213 | -0.28409 | 6980 ft | 268 kts | 200° |
| 2026-04-22 14:32 | 39.98423 | -0.29108 | 6964 ft | 266 kts | 199° |
| 2026-04-22 14:32 | 39.96639 | -0.29793 | 6950 ft | 268 kts | 199° |
| 2026-04-22 14:32 | 39.94857 | -0.30471 | 6984 ft | 269 kts | 199° |
| 2026-04-22 14:33 | 39.93076 | -0.31156 | 6962 ft | 269 kts | 199° |
| 2026-04-22 14:33 | 39.91311 | -0.31949 | 6942 ft | 265 kts | 212° |
| 2026-04-22 14:33 | 39.89993 | -0.33576 | 6855 ft | 260 kts | 231° |
| 2026-04-22 14:33 | 39.88865 | -0.35406 | 6523 ft | 260 kts | 233° |
| 2026-04-22 14:34 | 39.87729 | -0.37268 | 6216 ft | 262 kts | 233° |
| 2026-04-22 14:34 | 39.86624 | -0.39111 | 6086 ft | 256 kts | 232° |
| 2026-04-22 14:34 | 39.85510 | -0.40925 | 5745 ft | 258 kts | 232° |
| 2026-04-22 14:34 | 39.84376 | -0.42749 | 5437 ft | 259 kts | 231° |
| 2026-04-22 14:35 | 39.83240 | -0.44560 | 5168 ft | 259 kts | 231° |
| 2026-04-22 14:35 | 39.82097 | -0.46370 | 5086 ft | 259 kts | 231° |
| 2026-04-22 14:35 | 39.81081 | -0.47998 | 5054 ft | 259 kts | 231° |
| 2026-04-22 14:35 | 39.79987 | -0.49751 | 5019 ft | 260 kts | 231° |
| 2026-04-22 14:36 | 39.78975 | -0.51378 | 5005 ft | 256 kts | 232° |
| 2026-04-22 14:36 | 39.77842 | -0.53131 | 4982 ft | 252 kts | 230° |
| 2026-04-22 14:36 | 39.76743 | -0.54878 | 4894 ft | 246 kts | 232° |
| 2026-04-22 14:36 | 39.75685 | -0.56582 | 4802 ft | 239 kts | 232° |
| 2026-04-22 14:37 | 39.74656 | -0.58228 | 4760 ft | 230 kts | 231° |
| 2026-04-22 14:37 | 39.73662 | -0.59820 | 4499 ft | 226 kts | 231° |
| 2026-04-22 14:37 | 39.72677 | -0.61404 | 4147 ft | 226 kts | 230° |
| 2026-04-22 14:37 | 39.71692 | -0.62985 | 3799 ft | 224 kts | 231° |
| 2026-04-22 14:38 | 39.70720 | -0.64526 | 3656 ft | 221 kts | 231° |
| 2026-04-22 14:38 | 39.69752 | -0.66048 | 3624 ft | 216 kts | 231° |
| 2026-04-22 14:38 | 39.68782 | -0.67583 | 3618 ft | 224 kts | 231° |
| 2026-04-22 14:38 | 39.67796 | -0.69147 | 3614 ft | 224 kts | 231° |
| 2026-04-22 14:39 | 39.66807 | -0.70715 | 3597 ft | 224 kts | 231° |
| 2026-04-22 14:39 | 39.65828 | -0.72276 | 3590 ft | 222 kts | 231° |
| 2026-04-22 14:39 | 39.64844 | -0.73823 | 3609 ft | 225 kts | 230° |
| 2026-04-22 14:40 | 39.62914 | -0.75996 | 3643 ft | 226 kts | 199° |
| 2026-04-22 14:40 | 39.60810 | -0.75901 | 3620 ft | 236 kts | 160° |
| 2026-04-22 14:40 | 39.59563 | -0.74600 | 3632 ft | 228 kts | 133° |
| 2026-04-22 14:40 | 39.58645 | -0.72986 | 3531 ft | 217 kts | 127° |
| 2026-04-22 14:41 | 39.57848 | -0.71378 | 3355 ft | 210 kts | 122° |
| 2026-04-22 14:41 | 39.57151 | -0.69715 | 3153 ft | 209 kts | 121° |
| 2026-04-22 14:41 | 39.56703 | -0.68587 | 2998 ft | 207 kts | 118° |
| 2026-04-22 14:41 | 39.56090 | -0.66929 | 2887 ft | 207 kts | 117° |
| 2026-04-22 14:42 | 39.55460 | -0.65278 | 2786 ft | 202 kts | 117° |
| 2026-04-22 14:42 | 39.54838 | -0.63659 | 2608 ft | 201 kts | 117° |
| 2026-04-22 14:42 | 39.54264 | -0.62151 | 2310 ft | 199 kts | 117° |
| 2026-04-22 14:42 | 39.53652 | -0.60545 | 2064 ft | 192 kts | 117° |
| 2026-04-22 14:43 | 39.53072 | -0.59029 | 1836 ft | 184 kts | 116° |
| 2026-04-22 14:43 | 39.52534 | -0.57574 | 1575 ft | 172 kts | 116° |
| 2026-04-22 14:43 | 39.52020 | -0.56257 | 1321 ft | 157 kts | 117° |
| 2026-04-22 14:43 | 39.51574 | -0.55104 | 1183 ft | 132 kts | 116° |
| 2026-04-22 14:44 | 39.51261 | -0.54322 | 1105 ft | 134 kts | 116° |
| 2026-04-22 14:44 | 39.51124 | -0.53967 | 1048 ft | 135 kts | 115° |
| 2026-04-22 14:44 | 39.50726 | -0.52867 | 821 ft | 132 kts | 115° |
| 2026-04-22 14:44 | 39.50339 | -0.51862 | 631 ft | 119 kts | 115° |
| 2026-04-22 14:45 | 39.49965 | -0.50874 | 464 ft | 125 kts | 115° |
| 2026-04-22 14:45 | 39.49588 | -0.49885 | 254 ft | 120 kts | 117° |
| 2026-04-22 14:45 | 39.49241 | -0.48979 | 212 ft | 98 kts | 116° |
| 2026-04-22 14:45 | 39.49006 | -0.48357 | 210 ft | 56 kts | 116° |
| 2026-04-22 14:46 | 39.48888 | -0.48043 | 217 ft | 32 kts | 116° |
| 2026-04-22 14:46 | 39.48796 | -0.47801 | 214 ft | 29 kts | 116° |
| 2026-04-22 14:46 | 39.48708 | -0.47573 | 214 ft | 27 kts | 116° |
| 2026-04-22 14:46 | 39.48649 | -0.47378 | 211 ft | 22 kts | 90° |
| 2026-04-22 14:47 | 39.48689 | -0.47215 | 212 ft | 18 kts | 45° |
| 2026-04-22 14:47 | 39.48786 | -0.47188 | 216 ft | 13 kts | 344° |
| 2026-04-22 14:47 | 39.48865 | -0.47230 | 212 ft | 12 kts | 338° |
| 2026-04-22 14:47 | 39.48927 | -0.47290 | 208 ft | 10 kts | 300° |
| 2026-04-22 14:48 | 39.48971 | -0.47305 | 208 ft | 7 kts | 15° |
| 2026-04-22 14:48 | 39.49011 | -0.47288 | 212 ft | 3 kts | 18° |
| 2026-04-22 14:48 | 39.49022 | -0.47284 | 210 ft | 0 kts | 17° |